createdAt,value
2019-01-10T00:02:11.995Z,9.60
2019-01-10T00:04:50.187Z,9.60
2019-01-10T00:07:28.598Z,9.50
2019-01-10T00:10:08.146Z,9.70
2019-01-10T00:12:47.411Z,9.60
2019-01-10T00:15:40.322Z,9.60
2019-01-10T00:18:22.356Z,9.70
2019-01-10T00:21:00.376Z,9.80
2019-01-10T00:23:38.119Z,9.80
2019-01-10T00:26:17.328Z,9.70
2019-01-10T00:28:56.330Z,9.80
2019-01-10T00:34:30.622Z,9.90
2019-01-10T00:37:08.689Z,10.10
2019-01-10T00:39:47.389Z,10.10
2019-01-10T00:42:26.138Z,9.90
2019-01-10T00:45:05.922Z,9.80
2019-01-10T00:47:45.172Z,9.70
2019-01-10T00:50:25.691Z,9.70
2019-01-10T00:53:03.933Z,9.70
2019-01-10T00:55:41.726Z,9.80
2019-01-10T00:58:20.049Z,9.90
2019-01-10T01:00:58.295Z,9.90
2019-01-10T01:03:37.157Z,10.00
2019-01-10T01:06:15.787Z,10.10
2019-01-10T01:08:54.074Z,10.10
2019-01-10T01:11:32.818Z,10.20
2019-01-10T01:14:10.976Z,10.10
2019-01-10T01:16:49.314Z,10.30
2019-01-10T01:19:28.588Z,10.40
2019-01-10T01:22:07.051Z,10.20
2019-01-10T01:24:49.709Z,10.20
2019-01-10T01:27:28.204Z,10.20
2019-01-10T01:30:06.400Z,10.20
2019-01-10T01:32:45.086Z,10.00
2019-01-10T01:35:23.005Z,10.00
2019-01-10T01:38:02.138Z,10.10
2019-01-10T01:40:40.054Z,10.10
2019-01-10T01:43:18.521Z,10.10
2019-01-10T01:48:58.869Z,10.00
2019-01-10T01:51:36.730Z,9.80
2019-01-10T01:54:14.361Z,9.80
2019-01-10T01:56:52.810Z,9.80
2019-01-10T01:59:31.075Z,9.90
2019-01-10T02:02:09.404Z,10.00
2019-01-10T02:04:47.924Z,9.90
2019-01-10T02:13:27.394Z,10.00
2019-01-10T02:16:05.662Z,10.00
2019-01-10T02:18:43.880Z,9.90
2019-01-10T02:21:22.094Z,10.00
2019-01-10T02:26:57.701Z,9.90
2019-01-10T02:29:37.306Z,9.90
2019-01-10T02:32:17.336Z,10.00
2019-01-10T02:35:09.981Z,10.00
2019-01-10T02:37:47.955Z,10.10
2019-01-10T02:40:26.816Z,10.30
2019-01-10T02:43:04.882Z,10.10
2019-01-10T02:45:44.502Z,10.10
2019-01-10T02:48:23.106Z,10.20
2019-01-10T02:51:04.155Z,10.10
2019-01-10T02:53:42.809Z,10.10
2019-01-10T02:56:21.126Z,10.00
2019-01-10T02:58:59.155Z,9.90
2019-01-10T03:01:37.943Z,9.90
2019-01-10T03:07:17.165Z,10.10
2019-01-10T03:09:56.051Z,10.10
2019-01-10T03:12:34.842Z,10.00
2019-01-10T03:15:15.944Z,10.00
2019-01-10T03:20:56.628Z,10.00
2019-01-10T03:23:35.726Z,10.20
2019-01-10T03:26:14.612Z,10.20
2019-01-10T03:28:52.521Z,10.20
2019-01-10T03:31:31.452Z,10.30
2019-01-10T03:34:09.261Z,10.30
2019-01-10T03:36:47.648Z,10.30
2019-01-10T03:39:27.290Z,10.40
2019-01-10T03:42:05.986Z,10.40
2019-01-10T03:44:54.796Z,10.30
2019-01-10T03:47:32.740Z,10.30
2019-01-10T03:50:11.210Z,10.20
2019-01-10T03:52:49.719Z,10.30
2019-01-10T03:55:30.614Z,10.40
2019-01-10T03:58:09.306Z,10.30
2019-01-10T04:00:48.046Z,10.30
2019-01-10T04:03:26.609Z,10.30
2019-01-10T04:09:00.318Z,10.30
2019-01-10T04:14:38.266Z,10.40
2019-01-10T04:17:17.025Z,10.40
2019-01-10T04:19:55.499Z,10.40
2019-01-10T04:22:35.770Z,10.30
2019-01-10T04:25:15.738Z,10.30
2019-01-10T04:27:54.518Z,10.30
2019-01-10T04:33:32.353Z,10.30
2019-01-10T04:36:10.785Z,10.40
2019-01-10T04:38:52.364Z,10.40
2019-01-10T04:41:30.103Z,10.40
2019-01-10T04:44:10.651Z,10.40
2019-01-10T04:46:54.402Z,10.40
2019-01-10T04:49:34.197Z,10.50
2019-01-10T04:52:13.312Z,10.70
2019-01-10T04:54:56.053Z,10.70
2019-01-10T05:00:45.302Z,10.50
2019-01-10T05:03:25.621Z,10.50
2019-01-10T05:06:04.990Z,10.50
2019-01-10T05:08:47.026Z,10.50
2019-01-10T05:11:25.801Z,10.50
2019-01-10T05:14:16.202Z,10.50
2019-01-10T05:16:49.636Z,10.50
2019-01-10T05:19:28.402Z,10.50
2019-01-10T05:22:08.615Z,10.50
2019-01-10T05:30:27.065Z,10.60
2019-01-10T05:36:20.288Z,10.70
2019-01-10T05:38:59.589Z,10.70
2019-01-10T05:41:48.524Z,10.70
2019-01-10T05:44:28.162Z,10.60
2019-01-10T05:47:09.666Z,10.70
2019-01-10T05:49:54.363Z,10.60
2019-01-10T05:52:35.594Z,10.70
2019-01-10T05:55:20.644Z,10.60
2019-01-10T05:57:58.955Z,10.60
2019-01-10T06:00:40.910Z,10.60
2019-01-10T06:03:20.209Z,10.60
2019-01-10T06:05:59.892Z,10.60
2019-01-10T06:08:41.606Z,10.70
2019-01-10T06:11:24.086Z,10.70
2019-01-10T06:17:33.824Z,10.90
2019-01-10T06:20:58.966Z,10.90
2019-01-10T06:23:41.619Z,10.80
2019-01-10T06:26:21.679Z,10.70
2019-01-10T06:29:02.207Z,10.60
2019-01-10T06:31:53.463Z,10.60
2019-01-10T06:34:35.458Z,10.70
2019-01-10T06:37:15.973Z,10.70
2019-01-10T06:39:56.987Z,10.70
2019-01-10T06:42:35.782Z,10.80
2019-01-10T06:45:17.584Z,10.80
2019-01-10T06:53:52.190Z,10.50
2019-01-10T06:56:32.984Z,10.50
2019-01-10T06:59:12.581Z,10.50
2019-01-10T07:01:50.732Z,10.50
2019-01-10T07:07:27.849Z,10.50
2019-01-10T07:10:13.132Z,10.50
2019-01-10T07:12:58.399Z,10.60
2019-01-10T07:15:40.295Z,10.60
2019-01-10T07:18:24.081Z,10.70
2019-01-10T07:21:07.276Z,10.70
2019-01-10T07:23:54.323Z,10.70
2019-01-10T07:26:33.769Z,10.70
2019-01-10T07:29:15.863Z,10.80
2019-01-10T07:32:02.803Z,10.70
2019-01-10T07:34:41.210Z,10.80
2019-01-10T07:37:20.537Z,10.80
2019-01-10T07:40:01.806Z,10.80
2019-01-10T07:42:49.356Z,10.80
2019-01-10T07:45:36.531Z,10.80
2019-01-10T07:48:18.107Z,10.80
2019-01-10T07:50:57.701Z,10.80
2019-01-10T07:53:37.179Z,10.80
2019-01-10T07:56:19.578Z,10.80
2019-01-10T07:59:01.724Z,10.90
2019-01-10T08:01:44.127Z,10.80
2019-01-10T08:04:22.431Z,10.80
2019-01-10T08:07:11.923Z,10.80
2019-01-10T08:09:51.001Z,10.90
2019-01-10T08:12:29.012Z,10.80
2019-01-10T08:15:12.605Z,10.80
2019-01-10T08:17:56.131Z,10.80
2019-01-10T08:20:36.801Z,11.00
2019-01-10T08:23:14.999Z,10.90
2019-01-10T08:25:55.445Z,10.80
2019-01-10T08:28:36.932Z,10.70
2019-01-10T08:31:23.855Z,10.70
2019-01-10T08:34:02.405Z,10.70
2019-01-10T08:36:48.788Z,10.80
2019-01-10T08:39:30.855Z,10.80
2019-01-10T08:42:12.547Z,10.80
2019-01-10T08:44:50.941Z,10.80
2019-01-10T08:47:28.839Z,10.70
2019-01-10T08:50:08.582Z,10.70
2019-01-10T08:52:54.026Z,10.70
2019-01-10T08:55:36.060Z,10.60
2019-01-10T08:58:14.648Z,10.60
2019-01-10T09:00:58.021Z,10.70
2019-01-10T09:03:38.781Z,10.80
2019-01-10T09:06:17.250Z,10.90
2019-01-10T09:08:56.843Z,10.90
2019-01-10T09:11:39.613Z,10.90
2019-01-10T09:14:24.729Z,10.90
2019-01-10T09:17:05.251Z,11.00
2019-01-10T09:19:45.123Z,11.00
2019-01-10T09:22:23.449Z,10.90
2019-01-10T09:25:02.222Z,10.90
2019-01-10T09:27:43.936Z,10.90
2019-01-10T09:33:20.861Z,10.80
2019-01-10T09:36:03.637Z,10.70
2019-01-10T09:38:43.441Z,10.70
2019-01-10T09:41:24.086Z,10.70
2019-01-10T09:44:03.301Z,10.80
2019-01-10T09:46:42.317Z,10.70
2019-01-10T09:49:20.380Z,10.70
2019-01-10T09:51:59.745Z,10.70
2019-01-10T09:54:39.271Z,10.70
2019-01-10T09:57:19.682Z,10.70
2019-01-10T09:59:57.367Z,10.70
2019-01-10T10:02:37.357Z,10.70
2019-01-10T10:05:17.511Z,10.80
2019-01-10T10:07:56.095Z,10.80
2019-01-10T10:10:35.001Z,10.80
2019-01-10T10:13:15.595Z,10.90
2019-01-10T10:15:56.867Z,10.80
2019-01-10T10:18:36.638Z,10.80
2019-01-10T10:21:16.009Z,10.80
2019-01-10T10:23:54.148Z,10.70
2019-01-10T10:26:32.529Z,10.70
2019-01-10T10:29:12.196Z,10.80
2019-01-10T10:31:51.336Z,10.80
2019-01-10T10:34:33.347Z,10.80
2019-01-10T10:37:12.922Z,10.80
2019-01-10T10:39:54.937Z,10.90
2019-01-10T10:42:33.683Z,10.90
2019-01-10T10:45:15.809Z,10.80
2019-01-10T10:47:56.467Z,10.70
2019-01-10T10:50:35.423Z,10.70
2019-01-10T10:53:14.104Z,10.60
2019-01-10T10:55:53.478Z,10.60
2019-01-10T10:58:33.007Z,10.60
2019-01-10T11:01:12.882Z,10.60
2019-01-10T11:03:52.842Z,10.60
2019-01-10T11:06:36.074Z,10.50
2019-01-10T11:09:16.995Z,10.60
2019-01-10T11:11:57.042Z,10.70
2019-01-10T11:14:38.991Z,10.60
2019-01-10T11:17:21.684Z,10.60
2019-01-10T11:20:02.076Z,10.60
2019-01-10T11:22:43.486Z,10.60
2019-01-10T11:25:26.826Z,10.60
2019-01-10T11:28:16.204Z,10.70
2019-01-10T11:30:58.287Z,10.60
2019-01-10T11:33:38.795Z,10.60
2019-01-10T11:36:25.153Z,10.60
2019-01-10T11:39:05.936Z,10.60
2019-01-10T11:41:47.311Z,10.60
2019-01-10T11:44:28.425Z,10.60
2019-01-10T11:47:08.843Z,10.60
2019-01-10T11:49:48.417Z,10.60
2019-01-10T11:52:26.730Z,10.80
2019-01-10T11:55:07.019Z,10.70
2019-01-10T11:57:50.333Z,10.80
2019-01-10T12:00:37.872Z,10.80
2019-01-10T12:03:21.863Z,10.70
2019-01-10T12:06:00.963Z,10.60
2019-01-10T12:08:46.102Z,10.70
2019-01-10T12:11:25.851Z,10.90
2019-01-10T12:14:10.361Z,10.80
2019-01-10T12:16:51.144Z,10.70
2019-01-10T12:19:30.520Z,10.80
2019-01-10T12:22:14.947Z,10.80
2019-01-10T12:24:58.486Z,10.80
2019-01-10T12:27:38.382Z,10.70
2019-01-10T12:30:26.086Z,10.70
2019-01-10T12:33:13.199Z,10.80
2019-01-10T12:35:54.423Z,10.80
2019-01-10T12:38:37.099Z,10.70
2019-01-10T12:41:16.089Z,10.70
2019-01-10T12:43:58.031Z,10.60
2019-01-10T12:46:37.602Z,10.60
2019-01-10T12:49:17.027Z,10.60
2019-01-10T12:51:59.472Z,10.70
2019-01-10T12:54:44.225Z,10.60
2019-01-10T12:57:29.879Z,10.60
2019-01-10T13:00:12.001Z,10.60
2019-01-10T13:02:56.752Z,10.60
2019-01-10T13:05:45.545Z,10.60
2019-01-10T13:08:25.757Z,10.50
2019-01-10T13:11:07.162Z,10.50
2019-01-10T13:13:51.228Z,10.50
2019-01-10T13:16:31.883Z,10.50
2019-01-10T13:19:14.178Z,10.50
2019-01-10T13:21:53.234Z,10.50
2019-01-10T13:24:39.435Z,10.60
2019-01-10T13:27:20.449Z,10.60
2019-01-10T13:30:00.922Z,10.60
2019-01-10T13:32:40.563Z,10.60
2019-01-10T13:35:19.456Z,10.60
2019-01-10T13:38:04.134Z,10.60
2019-01-10T13:40:51.540Z,10.50
2019-01-10T13:43:39.317Z,10.70
2019-01-10T13:46:25.559Z,10.60
2019-01-10T13:49:11.047Z,10.60
2019-01-10T13:51:55.946Z,10.60
2019-01-10T13:54:38.902Z,10.60
2019-01-10T13:57:28.217Z,10.50
2019-01-10T14:00:10.801Z,10.50
2019-01-10T14:02:55.116Z,10.50
2019-01-10T14:05:40.731Z,10.50
2019-01-10T14:08:28.217Z,10.50
2019-01-10T14:11:22.680Z,10.50
2019-01-10T14:14:06.303Z,10.50
2019-01-10T14:16:49.838Z,10.50
2019-01-10T14:19:34.100Z,10.50
2019-01-10T14:22:51.624Z,10.50
2019-01-10T14:25:33.017Z,10.50
2019-01-10T14:28:13.777Z,10.40
2019-01-10T14:30:59.096Z,10.40
2019-01-10T14:33:48.389Z,10.50
2019-01-10T14:36:38.840Z,10.40
2019-01-10T14:39:18.622Z,10.50
2019-01-10T14:41:58.640Z,10.50
2019-01-10T14:47:50.691Z,10.40
2019-01-10T14:50:35.060Z,10.40
2019-01-10T14:53:17.143Z,10.40
2019-01-10T14:55:57.955Z,10.40
2019-01-10T14:58:37.669Z,10.40
2019-01-10T15:01:29.132Z,10.40
2019-01-10T15:04:17.623Z,10.40
2019-01-10T15:07:06.810Z,10.30
2019-01-10T15:09:59.745Z,10.30
2019-01-10T15:13:01.474Z,10.30
2019-01-10T15:15:48.193Z,10.30
2019-01-10T15:18:37.157Z,10.40
2019-01-10T15:21:40.572Z,10.40
2019-01-10T15:24:24.762Z,10.40
2019-01-10T15:27:11.667Z,10.40
2019-01-10T15:29:53.387Z,10.50
2019-01-10T15:32:39.880Z,10.50
2019-01-10T15:35:18.933Z,10.50
2019-01-10T15:38:14.009Z,10.50
2019-01-10T15:41:02.190Z,10.40
2019-01-10T15:43:43.234Z,10.40
2019-01-10T15:46:29.463Z,10.40
2019-01-10T15:49:19.688Z,10.40
2019-01-10T15:52:06.849Z,10.40
2019-01-10T15:55:03.198Z,10.40
2019-01-10T15:58:00.615Z,10.30
2019-01-10T16:01:01.111Z,10.30
2019-01-10T16:03:43.583Z,10.30
2019-01-10T16:06:27.608Z,10.30
2019-01-10T16:09:12.636Z,10.30
2019-01-10T16:11:56.836Z,10.30
2019-01-10T16:14:41.692Z,10.30
2019-01-10T16:17:28.805Z,10.30
2019-01-10T16:20:12.554Z,10.30
2019-01-10T16:22:57.513Z,10.30
2019-01-10T16:25:40.291Z,10.30
2019-01-10T16:28:25.882Z,10.40
2019-01-10T16:31:16.195Z,10.40
2019-01-10T16:34:03.397Z,10.40
2019-01-10T16:36:46.745Z,10.40
2019-01-10T16:39:28.733Z,10.40
2019-01-10T16:42:11.004Z,10.40
2019-01-10T16:44:53.180Z,10.20
2019-01-10T16:47:36.132Z,10.30
2019-01-10T16:50:30.179Z,10.30
2019-01-10T16:53:12.599Z,10.30
2019-01-10T16:55:59.638Z,10.30
2019-01-10T16:58:40.650Z,10.30
2019-01-10T17:01:29.870Z,10.30
2019-01-10T17:04:13.162Z,10.30
2019-01-10T17:06:56.874Z,10.30
2019-01-10T17:09:36.626Z,10.30
2019-01-10T17:12:22.347Z,10.30
2019-01-10T17:15:00.170Z,10.30
2019-01-10T17:17:42.010Z,10.20
2019-01-10T17:20:25.121Z,10.30
2019-01-10T17:23:07.807Z,10.30
2019-01-10T17:25:51.689Z,10.30
2019-01-10T17:28:31.019Z,10.30
2019-01-10T17:31:14.960Z,10.30
2019-01-10T17:33:54.901Z,10.30
2019-01-10T17:36:37.305Z,10.30
2019-01-10T17:39:17.243Z,10.30
2019-01-10T17:41:55.891Z,10.30
2019-01-10T17:44:53.838Z,10.30
2019-01-10T17:47:35.462Z,10.30
2019-01-10T17:50:14.872Z,10.30
2019-01-10T17:52:56.946Z,10.30
2019-01-10T17:55:48.419Z,10.30
2019-01-10T17:58:29.011Z,10.30
2019-01-10T18:01:08.999Z,10.30
2019-01-10T18:03:48.349Z,10.30
2019-01-10T18:06:32.462Z,10.30
2019-01-10T18:09:13.720Z,10.30
2019-01-10T18:11:54.479Z,10.20
2019-01-10T18:14:37.523Z,10.10
2019-01-10T18:17:15.014Z,10.20
2019-01-10T18:19:54.005Z,10.20
2019-01-10T18:22:36.910Z,10.10
2019-01-10T18:25:15.487Z,10.10
2019-01-10T18:27:53.117Z,10.10
2019-01-10T18:30:31.459Z,10.10
2019-01-10T18:33:12.737Z,10.10
2019-01-10T18:35:51.698Z,10.00
2019-01-10T18:38:31.286Z,9.90
2019-01-10T18:41:12.317Z,9.90
2019-01-10T18:43:58.667Z,9.90
2019-01-10T18:46:39.203Z,9.90
2019-01-10T18:49:21.321Z,9.90
2019-01-10T18:52:04.851Z,9.80
2019-01-10T18:54:45.819Z,9.80
2019-01-10T18:57:24.298Z,9.80
2019-01-10T19:00:03.338Z,9.80
2019-01-10T19:02:43.580Z,9.80
2019-01-10T19:05:26.281Z,9.80
2019-01-10T19:08:04.586Z,9.80
2019-01-10T19:10:43.025Z,9.70
2019-01-10T19:13:22.606Z,9.80
2019-01-10T19:16:04.623Z,9.80
2019-01-10T19:18:43.366Z,9.80
2019-01-10T19:21:24.062Z,9.70
2019-01-10T19:24:03.002Z,9.70
2019-01-10T19:26:42.475Z,9.70
2019-01-10T19:29:21.682Z,9.70
2019-01-10T19:31:59.416Z,9.60
2019-01-10T19:34:40.608Z,9.60
2019-01-10T19:37:20.955Z,9.60
2019-01-10T19:40:02.693Z,9.60
2019-01-10T19:42:43.089Z,9.50
2019-01-10T19:45:22.163Z,9.60
2019-01-10T19:48:11.184Z,9.50
2019-01-10T19:50:51.547Z,9.50
2019-01-10T19:53:33.881Z,9.50
2019-01-10T19:56:11.591Z,9.50
2019-01-10T19:58:49.593Z,9.50
2019-01-10T20:01:29.951Z,9.50
2019-01-10T20:04:10.010Z,9.50
2019-01-10T20:06:47.910Z,9.50
2019-01-10T20:09:29.936Z,9.40
2019-01-10T20:12:08.500Z,9.30
2019-01-10T20:14:47.979Z,9.30
2019-01-10T20:17:30.051Z,9.30
2019-01-10T20:20:11.320Z,9.30
2019-01-10T20:22:48.363Z,9.30
2019-01-10T20:25:29.644Z,9.30
2019-01-10T20:28:07.460Z,9.30
2019-01-10T20:30:46.075Z,9.30
2019-01-10T20:33:25.770Z,9.30
2019-01-10T20:36:04.154Z,9.20
2019-01-10T20:38:43.968Z,9.30
2019-01-10T20:41:21.340Z,9.30
2019-01-10T20:44:01.320Z,9.20
2019-01-10T20:46:39.503Z,9.20
2019-01-10T20:49:18.663Z,9.30
2019-01-10T20:51:56.045Z,9.30
2019-01-10T20:54:35.716Z,9.30
2019-01-10T20:57:16.027Z,9.30
2019-01-10T20:59:53.320Z,9.20
2019-01-10T21:02:31.175Z,9.20
2019-01-10T21:05:10.083Z,9.30
2019-01-10T21:07:51.339Z,9.30
2019-01-10T21:10:29.896Z,9.30
2019-01-10T21:13:08.317Z,9.20
2019-01-10T21:15:46.418Z,9.20
2019-01-10T21:18:28.620Z,9.20
2019-01-10T21:21:05.383Z,9.20
2019-01-10T21:23:47.745Z,9.10
2019-01-10T21:26:26.117Z,9.10
2019-01-10T21:29:03.339Z,9.10
2019-01-10T21:31:45.089Z,9.10
2019-01-10T21:34:26.079Z,9.10
2019-01-10T21:37:04.577Z,9.20
2019-01-10T21:39:42.259Z,9.20
2019-01-10T21:42:19.998Z,9.20
2019-01-10T21:44:57.569Z,9.20
2019-01-10T21:47:35.697Z,9.20
2019-01-10T21:50:15.890Z,9.20
2019-01-10T21:52:54.923Z,9.20
2019-01-10T21:55:34.777Z,9.20
2019-01-10T21:58:14.594Z,9.30
2019-01-10T22:00:52.425Z,9.30
2019-01-10T22:03:31.024Z,9.30
2019-01-10T22:06:13.515Z,9.30
2019-01-10T22:08:53.589Z,9.20
2019-01-10T22:11:31.266Z,9.20
2019-01-10T22:14:12.088Z,9.10
2019-01-10T22:16:50.217Z,9.10
2019-01-10T22:19:27.831Z,9.10
2019-01-10T22:22:06.943Z,9.00
2019-01-10T22:24:44.419Z,9.00
2019-01-10T22:27:23.566Z,9.00
2019-01-10T22:30:03.584Z,9.00
2019-01-10T22:32:42.308Z,9.00
2019-01-10T22:35:23.668Z,9.00
2019-01-10T22:38:05.639Z,9.10
2019-01-10T22:40:44.271Z,9.20
2019-01-10T22:43:23.248Z,9.30
2019-01-10T22:46:02.313Z,9.20
2019-01-10T22:48:47.715Z,9.20
2019-01-10T22:51:20.754Z,9.30
2019-01-10T22:54:02.224Z,9.30
2019-01-10T22:56:43.243Z,9.40
2019-01-10T22:59:24.378Z,9.40
2019-01-10T23:02:03.437Z,9.40
2019-01-10T23:04:41.719Z,9.40
2019-01-10T23:07:39.151Z,9.40
2019-01-10T23:10:20.442Z,9.30
2019-01-10T23:12:59.445Z,9.30
2019-01-10T23:15:38.001Z,9.30
2019-01-10T23:18:19.946Z,9.30
2019-01-10T23:21:06.801Z,9.20
2019-01-10T23:23:47.889Z,9.20
2019-01-10T23:26:27.393Z,9.20
2019-01-10T23:29:05.830Z,9.20
2019-01-10T23:31:44.384Z,9.20
2019-01-10T23:34:27.359Z,9.30
2019-01-10T23:37:05.563Z,9.30
2019-01-10T23:39:44.158Z,9.40
2019-01-10T23:42:22.280Z,9.30
2019-01-10T23:45:03.187Z,9.40
2019-01-10T23:47:41.441Z,9.30
2019-01-10T23:50:20.405Z,9.30
2019-01-10T23:53:00.013Z,9.30
2019-01-10T23:55:40.365Z,9.30
2019-01-10T23:58:18.701Z,9.40
